sensor_id;sensor_type;location;lat;lon;timestamp;temperature;humidity
22526;DHT22;11429;50.842;4.386;2023-05-21T00:01:40;17.20;99.90
22526;DHT22;11429;50.842;4.386;2023-05-21T00:04:06;17.10;99.90
22526;DHT22;11429;50.842;4.386;2023-05-21T00:06:35;17.10;99.90
22526;DHT22;11429;50.842;4.386;2023-05-21T00:09:04;16.90;99.90
22526;DHT22;11429;50.842;4.386;2023-05-21T00:11:30;16.80;99.90
22526;DHT22;11429;50.842;4.386;2023-05-21T00:13:57;16.70;99.90
22526;DHT22;11429;50.842;4.386;2023-05-21T00:16:23;16.90;99.90
22526;DHT22;11429;50.842;4.386;2023-05-21T00:18:49;16.70;99.90
22526;DHT22;11429;50.842;4.386;2023-05-21T00:21:16;16.90;99.90
22526;DHT22;11429;50.842;4.386;2023-05-21T00:23:42;16.50;99.90
22526;DHT22;11429;50.842;4.386;2023-05-21T00:26:10;16.40;99.90
22526;DHT22;11429;50.842;4.386;2023-05-21T00:28:35;16.20;99.90
22526;DHT22;11429;50.842;4.386;2023-05-21T00:31:01;16.60;99.90
22526;DHT22;11429;50.842;4.386;2023-05-21T00:33:27;16.70;99.90
22526;DHT22;11429;50.842;4.386;2023-05-21T00:35:54;16.80;99.90
22526;DHT22;11429;50.842;4.386;2023-05-21T00:38:19;16.50;99.90
22526;DHT22;11429;50.842;4.386;2023-05-21T00:40:46;16.40;99.90
22526;DHT22;11429;50.842;4.386;2023-05-21T00:43:12;16.50;99.90
22526;DHT22;11429;50.842;4.386;2023-05-21T00:45:40;16.40;99.90
22526;DHT22;11429;50.842;4.386;2023-05-21T00:48:07;16.30;99.90
22526;DHT22;11429;50.842;4.386;2023-05-21T00:50:33;16.20;99.90
22526;DHT22;11429;50.842;4.386;2023-05-21T00:53:00;16.20;99.90
22526;DHT22;11429;50.842;4.386;2023-05-21T00:55:26;16.20;99.90
22526;DHT22;11429;50.842;4.386;2023-05-21T00:57:52;16.40;99.90
22526;DHT22;11429;50.842;4.386;2023-05-21T01:00:18;16.30;99.90
22526;DHT22;11429;50.842;4.386;2023-05-21T01:02:45;16.30;99.90
22526;DHT22;11429;50.842;4.386;2023-05-21T01:05:11;16.30;99.90
22526;DHT22;11429;50.842;4.386;2023-05-21T01:07:38;16.20;99.90
22526;DHT22;11429;50.842;4.386;2023-05-21T01:10:07;16.40;99.90
22526;DHT22;11429;50.842;4.386;2023-05-21T01:12:34;16.00;99.90
22526;DHT22;11429;50.842;4.386;2023-05-21T01:15:02;15.90;99.90
22526;DHT22;11429;50.842;4.386;2023-05-21T01:17:29;15.90;99.90
22526;DHT22;11429;50.842;4.386;2023-05-21T01:19:59;15.90;99.90
22526;DHT22;11429;50.842;4.386;2023-05-21T01:22:25;15.80;99.90
22526;DHT22;11429;50.842;4.386;2023-05-21T01:24:53;16.00;99.90
22526;DHT22;11429;50.842;4.386;2023-05-21T01:27:20;16.10;99.90
22526;DHT22;11429;50.842;4.386;2023-05-21T01:29:46;16.30;99.90
22526;DHT22;11429;50.842;4.386;2023-05-21T01:32:43;16.20;99.90
22526;DHT22;11429;50.842;4.386;2023-05-21T01:35:42;16.10;99.90
22526;DHT22;11429;50.842;4.386;2023-05-21T01:38:19;16.10;99.90
22526;DHT22;11429;50.842;4.386;2023-05-21T01:41:02;16.10;99.90
22526;DHT22;11429;50.842;4.386;2023-05-21T01:43:31;16.00;99.90
22526;DHT22;11429;50.842;4.386;2023-05-21T01:45:59;15.80;99.90
22526;DHT22;11429;50.842;4.386;2023-05-21T01:48:27;15.80;99.90
22526;DHT22;11429;50.842;4.386;2023-05-21T01:50:56;15.90;99.90
22526;DHT22;11429;50.842;4.386;2023-05-21T01:53:22;16.20;99.90
22526;DHT22;11429;50.842;4.386;2023-05-21T01:55:48;16.10;99.90
22526;DHT22;11429;50.842;4.386;2023-05-21T01:58:14;16.10;99.90
22526;DHT22;11429;50.842;4.386;2023-05-21T02:00:40;16.10;99.90
22526;DHT22;11429;50.842;4.386;2023-05-21T02:03:07;15.90;99.90
22526;DHT22;11429;50.842;4.386;2023-05-21T02:05:33;16.00;99.90
22526;DHT22;11429;50.842;4.386;2023-05-21T02:07:59;15.90;99.90
22526;DHT22;11429;50.842;4.386;2023-05-21T02:10:25;15.90;99.90
22526;DHT22;11429;50.842;4.386;2023-05-21T02:12:51;15.90;99.90
22526;DHT22;11429;50.842;4.386;2023-05-21T02:15:17;15.70;99.90
22526;DHT22;11429;50.842;4.386;2023-05-21T02:17:47;15.50;99.90
22526;DHT22;11429;50.842;4.386;2023-05-21T02:20:15;15.30;99.90
22526;DHT22;11429;50.842;4.386;2023-05-21T02:22:43;15.40;99.90
22526;DHT22;11429;50.842;4.386;2023-05-21T02:25:10;15.60;99.90
22526;DHT22;11429;50.842;4.386;2023-05-21T02:27:37;15.80;99.90
22526;DHT22;11429;50.842;4.386;2023-05-21T02:30:04;15.80;99.90
22526;DHT22;11429;50.842;4.386;2023-05-21T02:32:30;15.80;99.90
22526;DHT22;11429;50.842;4.386;2023-05-21T02:35:02;15.40;99.90
22526;DHT22;11429;50.842;4.386;2023-05-21T02:37:29;15.50;99.90
22526;DHT22;11429;50.842;4.386;2023-05-21T02:39:58;15.40;99.90
22526;DHT22;11429;50.842;4.386;2023-05-21T02:42:24;15.30;99.90
22526;DHT22;11429;50.842;4.386;2023-05-21T02:44:51;15.30;99.90
22526;DHT22;11429;50.842;4.386;2023-05-21T02:47:20;15.30;99.90
22526;DHT22;11429;50.842;4.386;2023-05-21T02:49:49;15.50;99.90
22526;DHT22;11429;50.842;4.386;2023-05-21T02:52:15;15.40;99.90
22526;DHT22;11429;50.842;4.386;2023-05-21T02:54:43;15.70;99.90
22526;DHT22;11429;50.842;4.386;2023-05-21T02:57:09;15.40;99.90
22526;DHT22;11429;50.842;4.386;2023-05-21T02:59:34;15.00;99.90
22526;DHT22;11429;50.842;4.386;2023-05-21T03:02:00;15.20;99.90
22526;DHT22;11429;50.842;4.386;2023-05-21T03:04:26;15.20;99.90
22526;DHT22;11429;50.842;4.386;2023-05-21T03:06:53;15.40;99.90
22526;DHT22;11429;50.842;4.386;2023-05-21T03:09:22;15.50;99.90
22526;DHT22;11429;50.842;4.386;2023-05-21T03:11:49;15.50;99.90
22526;DHT22;11429;50.842;4.386;2023-05-21T03:14:14;15.70;99.90
22526;DHT22;11429;50.842;4.386;2023-05-21T03:16:43;15.60;99.90
22526;DHT22;11429;50.842;4.386;2023-05-21T03:19:12;15.60;99.90
22526;DHT22;11429;50.842;4.386;2023-05-21T03:21:38;15.50;99.90
22526;DHT22;11429;50.842;4.386;2023-05-21T03:24:04;15.10;99.90
22526;DHT22;11429;50.842;4.386;2023-05-21T03:26:30;15.20;99.90
22526;DHT22;11429;50.842;4.386;2023-05-21T03:28:56;15.40;99.90
22526;DHT22;11429;50.842;4.386;2023-05-21T03:31:25;15.20;99.90
22526;DHT22;11429;50.842;4.386;2023-05-21T03:33:51;15.20;99.90
22526;DHT22;11429;50.842;4.386;2023-05-21T03:36:18;15.20;99.90
22526;DHT22;11429;50.842;4.386;2023-05-21T03:38:43;15.00;99.90
22526;DHT22;11429;50.842;4.386;2023-05-21T03:41:10;15.00;99.90
22526;DHT22;11429;50.842;4.386;2023-05-21T03:43:36;14.90;99.90
22526;DHT22;11429;50.842;4.386;2023-05-21T03:46:01;15.10;99.90
22526;DHT22;11429;50.842;4.386;2023-05-21T03:48:27;15.20;99.90
22526;DHT22;11429;50.842;4.386;2023-05-21T03:50:53;15.30;99.90
22526;DHT22;11429;50.842;4.386;2023-05-21T03:53:18;15.50;99.90
22526;DHT22;11429;50.842;4.386;2023-05-21T03:55:44;15.20;99.90
22526;DHT22;11429;50.842;4.386;2023-05-21T03:58:10;15.20;99.90
22526;DHT22;11429;50.842;4.386;2023-05-21T04:00:36;15.00;99.90
22526;DHT22;11429;50.842;4.386;2023-05-21T04:03:02;15.20;99.90
22526;DHT22;11429;50.842;4.386;2023-05-21T04:05:28;15.20;99.90
22526;DHT22;11429;50.842;4.386;2023-05-21T04:07:54;15.10;99.90
22526;DHT22;11429;50.842;4.386;2023-05-21T04:10:20;15.00;99.90
22526;DHT22;11429;50.842;4.386;2023-05-21T04:12:47;15.00;99.90
22526;DHT22;11429;50.842;4.386;2023-05-21T04:15:19;14.90;99.90
22526;DHT22;11429;50.842;4.386;2023-05-21T04:17:45;14.90;99.90
22526;DHT22;11429;50.842;4.386;2023-05-21T04:20:14;14.90;99.90
22526;DHT22;11429;50.842;4.386;2023-05-21T04:22:41;14.90;99.90
22526;DHT22;11429;50.842;4.386;2023-05-21T04:25:08;15.00;99.90
22526;DHT22;11429;50.842;4.386;2023-05-21T04:27:35;15.20;99.90
22526;DHT22;11429;50.842;4.386;2023-05-21T04:30:01;15.20;99.90
22526;DHT22;11429;50.842;4.386;2023-05-21T04:32:29;15.30;99.90
22526;DHT22;11429;50.842;4.386;2023-05-21T04:34:55;15.10;99.90
22526;DHT22;11429;50.842;4.386;2023-05-21T04:37:21;15.10;99.90
22526;DHT22;11429;50.842;4.386;2023-05-21T04:39:49;15.20;99.90
22526;DHT22;11429;50.842;4.386;2023-05-21T04:42:15;15.30;99.90
22526;DHT22;11429;50.842;4.386;2023-05-21T04:44:40;15.30;99.90
22526;DHT22;11429;50.842;4.386;2023-05-21T04:47:08;15.40;99.90
22526;DHT22;11429;50.842;4.386;2023-05-21T04:49:34;15.40;99.90
22526;DHT22;11429;50.842;4.386;2023-05-21T04:52:00;15.60;99.90
22526;DHT22;11429;50.842;4.386;2023-05-21T04:54:27;15.70;99.90
22526;DHT22;11429;50.842;4.386;2023-05-21T04:56:52;15.60;99.90
22526;DHT22;11429;50.842;4.386;2023-05-21T04:59:18;15.90;99.90
22526;DHT22;11429;50.842;4.386;2023-05-21T05:01:44;15.80;99.90
22526;DHT22;11429;50.842;4.386;2023-05-21T05:04:10;15.70;99.90
22526;DHT22;11429;50.842;4.386;2023-05-21T05:06:36;15.70;99.90
22526;DHT22;11429;50.842;4.386;2023-05-21T05:09:01;15.80;99.90
22526;DHT22;11429;50.842;4.386;2023-05-21T05:11:28;15.90;99.90
22526;DHT22;11429;50.842;4.386;2023-05-21T05:13:54;16.10;99.90
22526;DHT22;11429;50.842;4.386;2023-05-21T05:16:20;16.40;99.90
22526;DHT22;11429;50.842;4.386;2023-05-21T05:18:52;16.50;99.90
22526;DHT22;11429;50.842;4.386;2023-05-21T05:21:20;16.20;99.90
22526;DHT22;11429;50.842;4.386;2023-05-21T05:23:46;16.20;99.90
22526;DHT22;11429;50.842;4.386;2023-05-21T05:26:11;16.20;99.90
22526;DHT22;11429;50.842;4.386;2023-05-21T05:28:37;16.30;99.90
22526;DHT22;11429;50.842;4.386;2023-05-21T05:31:03;16.60;99.90
22526;DHT22;11429;50.842;4.386;2023-05-21T05:33:29;16.60;99.90
22526;DHT22;11429;50.842;4.386;2023-05-21T05:35:54;16.50;99.90
22526;DHT22;11429;50.842;4.386;2023-05-21T05:38:20;16.50;99.90
22526;DHT22;11429;50.842;4.386;2023-05-21T05:40:46;16.70;99.90
22526;DHT22;11429;50.842;4.386;2023-05-21T05:43:12;16.80;99.90
22526;DHT22;11429;50.842;4.386;2023-05-21T05:45:37;17.20;99.90
22526;DHT22;11429;50.842;4.386;2023-05-21T05:48:03;17.40;99.90
22526;DHT22;11429;50.842;4.386;2023-05-21T05:50:29;17.30;99.90
22526;DHT22;11429;50.842;4.386;2023-05-21T05:52:54;17.50;99.90
22526;DHT22;11429;50.842;4.386;2023-05-21T05:55:20;17.50;99.90
22526;DHT22;11429;50.842;4.386;2023-05-21T05:57:46;17.60;99.90
22526;DHT22;11429;50.842;4.386;2023-05-21T06:00:12;17.50;99.90
22526;DHT22;11429;50.842;4.386;2023-05-21T06:02:38;17.90;99.90
22526;DHT22;11429;50.842;4.386;2023-05-21T06:05:04;18.10;99.90
22526;DHT22;11429;50.842;4.386;2023-05-21T06:07:31;18.00;99.90
22526;DHT22;11429;50.842;4.386;2023-05-21T06:09:57;17.90;99.90
22526;DHT22;11429;50.842;4.386;2023-05-21T06:12:24;18.10;99.90
22526;DHT22;11429;50.842;4.386;2023-05-21T06:14:50;18.30;99.90
22526;DHT22;11429;50.842;4.386;2023-05-21T06:17:16;18.50;99.90
22526;DHT22;11429;50.842;4.386;2023-05-21T06:19:41;18.80;99.90
22526;DHT22;11429;50.842;4.386;2023-05-21T06:22:09;19.10;99.90
22526;DHT22;11429;50.842;4.386;2023-05-21T06:24:35;19.90;99.90
22526;DHT22;11429;50.842;4.386;2023-05-21T06:27:00;20.00;99.90
22526;DHT22;11429;50.842;4.386;2023-05-21T06:29:26;20.10;99.90
22526;DHT22;11429;50.842;4.386;2023-05-21T06:31:52;20.10;99.90
22526;DHT22;11429;50.842;4.386;2023-05-21T06:34:17;20.00;99.90
22526;DHT22;11429;50.842;4.386;2023-05-21T06:36:43;19.80;99.90
22526;DHT22;11429;50.842;4.386;2023-05-21T06:39:09;20.10;99.90
22526;DHT22;11429;50.842;4.386;2023-05-21T06:41:34;20.30;99.90
22526;DHT22;11429;50.842;4.386;2023-05-21T06:44:00;20.20;99.90
22526;DHT22;11429;50.842;4.386;2023-05-21T06:46:26;20.20;99.90
22526;DHT22;11429;50.842;4.386;2023-05-21T06:48:51;20.40;99.90
22526;DHT22;11429;50.842;4.386;2023-05-21T06:51:17;20.60;99.90
22526;DHT22;11429;50.842;4.386;2023-05-21T06:53:43;21.10;99.90
22526;DHT22;11429;50.842;4.386;2023-05-21T06:56:08;22.10;99.90
22526;DHT22;11429;50.842;4.386;2023-05-21T06:58:34;23.40;99.90
22526;DHT22;11429;50.842;4.386;2023-05-21T07:01:00;24.50;99.90
22526;DHT22;11429;50.842;4.386;2023-05-21T07:03:26;25.40;99.90
22526;DHT22;11429;50.842;4.386;2023-05-21T07:05:52;26.10;99.90
22526;DHT22;11429;50.842;4.386;2023-05-21T07:08:18;26.20;99.90
22526;DHT22;11429;50.842;4.386;2023-05-21T07:10:47;26.10;99.90
22526;DHT22;11429;50.842;4.386;2023-05-21T07:13:14;25.30;99.90
22526;DHT22;11429;50.842;4.386;2023-05-21T07:15:40;24.00;99.90
22526;DHT22;11429;50.842;4.386;2023-05-21T07:18:06;22.60;99.90
22526;DHT22;11429;50.842;4.386;2023-05-21T07:20:32;22.20;99.90
22526;DHT22;11429;50.842;4.386;2023-05-21T07:22:58;21.70;99.90
22526;DHT22;11429;50.842;4.386;2023-05-21T07:25:23;21.80;99.90
22526;DHT22;11429;50.842;4.386;2023-05-21T07:27:49;22.10;99.90
22526;DHT22;11429;50.842;4.386;2023-05-21T07:30:15;22.40;99.90
22526;DHT22;11429;50.842;4.386;2023-05-21T07:32:41;22.90;99.90
22526;DHT22;11429;50.842;4.386;2023-05-21T07:35:09;23.90;99.90
22526;DHT22;11429;50.842;4.386;2023-05-21T07:37:35;24.10;99.90
22526;DHT22;11429;50.842;4.386;2023-05-21T07:40:01;24.40;99.90
22526;DHT22;11429;50.842;4.386;2023-05-21T07:42:27;25.10;99.90
22526;DHT22;11429;50.842;4.386;2023-05-21T07:44:52;26.10;99.90
22526;DHT22;11429;50.842;4.386;2023-05-21T07:47:18;26.10;99.90
22526;DHT22;11429;50.842;4.386;2023-05-21T07:49:44;26.90;99.90
22526;DHT22;11429;50.842;4.386;2023-05-21T07:52:09;26.80;99.90
22526;DHT22;11429;50.842;4.386;2023-05-21T07:54:35;26.50;99.90
22526;DHT22;11429;50.842;4.386;2023-05-21T07:57:01;26.20;99.90
22526;DHT22;11429;50.842;4.386;2023-05-21T07:59:27;26.70;99.90
22526;DHT22;11429;50.842;4.386;2023-05-21T08:01:53;27.20;99.90
22526;DHT22;11429;50.842;4.386;2023-05-21T08:04:18;26.90;99.90
22526;DHT22;11429;50.842;4.386;2023-05-21T08:06:44;27.10;99.90
22526;DHT22;11429;50.842;4.386;2023-05-21T08:09:10;27.70;99.90
22526;DHT22;11429;50.842;4.386;2023-05-21T08:11:36;27.80;99.90
22526;DHT22;11429;50.842;4.386;2023-05-21T08:14:02;27.50;99.90
22526;DHT22;11429;50.842;4.386;2023-05-21T08:16:28;27.30;99.90
22526;DHT22;11429;50.842;4.386;2023-05-21T08:18:54;26.90;99.90
22526;DHT22;11429;50.842;4.386;2023-05-21T08:21:21;26.20;99.90
22526;DHT22;11429;50.842;4.386;2023-05-21T08:23:47;25.70;99.90
22526;DHT22;11429;50.842;4.386;2023-05-21T08:26:12;24.90;99.90
22526;DHT22;11429;50.842;4.386;2023-05-21T08:28:41;24.60;99.90
22526;DHT22;11429;50.842;4.386;2023-05-21T08:31:06;24.60;99.90
22526;DHT22;11429;50.842;4.386;2023-05-21T08:33:34;23.80;99.90
22526;DHT22;11429;50.842;4.386;2023-05-21T08:36:06;23.80;99.90
22526;DHT22;11429;50.842;4.386;2023-05-21T08:38:32;24.10;99.90
22526;DHT22;11429;50.842;4.386;2023-05-21T08:40:59;24.60;99.90
22526;DHT22;11429;50.842;4.386;2023-05-21T08:43:28;24.40;99.90
22526;DHT22;11429;50.842;4.386;2023-05-21T08:45:55;25.50;99.90
22526;DHT22;11429;50.842;4.386;2023-05-21T08:48:22;25.50;99.90
22526;DHT22;11429;50.842;4.386;2023-05-21T08:50:52;26.00;99.90
22526;DHT22;11429;50.842;4.386;2023-05-21T08:53:19;27.30;99.90
22526;DHT22;11429;50.842;4.386;2023-05-21T08:55:45;27.80;99.90
22526;DHT22;11429;50.842;4.386;2023-05-21T08:58:11;29.20;99.90
22526;DHT22;11429;50.842;4.386;2023-05-21T09:00:38;29.70;99.80
22526;DHT22;11429;50.842;4.386;2023-05-21T09:03:04;29.70;99.60
22526;DHT22;11429;50.842;4.386;2023-05-21T09:05:40;29.50;99.70
22526;DHT22;11429;50.842;4.386;2023-05-21T09:08:17;28.80;99.90
22526;DHT22;11429;50.842;4.386;2023-05-21T09:10:48;30.20;99.00
22526;DHT22;11429;50.842;4.386;2023-05-21T09:13:18;29.40;99.50
22526;DHT22;11429;50.842;4.386;2023-05-21T09:15:44;29.80;99.20
22526;DHT22;11429;50.842;4.386;2023-05-21T09:18:10;30.40;98.50
22526;DHT22;11429;50.842;4.386;2023-05-21T09:20:36;28.70;99.50
22526;DHT22;11429;50.842;4.386;2023-05-21T09:23:04;29.50;99.60
22526;DHT22;11429;50.842;4.386;2023-05-21T09:25:31;30.60;98.30
22526;DHT22;11429;50.842;4.386;2023-05-21T09:27:57;31.60;97.20
22526;DHT22;11429;50.842;4.386;2023-05-21T09:30:24;31.30;97.30
22526;DHT22;11429;50.842;4.386;2023-05-21T09:32:55;30.70;97.30
22526;DHT22;11429;50.842;4.386;2023-05-21T09:35:21;28.80;98.90
22526;DHT22;11429;50.842;4.386;2023-05-21T09:37:48;29.80;98.20
22526;DHT22;11429;50.842;4.386;2023-05-21T09:40:18;30.30;98.10
22526;DHT22;11429;50.842;4.386;2023-05-21T09:42:53;29.80;98.70
22526;DHT22;11429;50.842;4.386;2023-05-21T09:45:27;29.20;99.00
22526;DHT22;11429;50.842;4.386;2023-05-21T09:47:54;30.30;98.00
22526;DHT22;11429;50.842;4.386;2023-05-21T09:52:48;30.20;98.20
22526;DHT22;11429;50.842;4.386;2023-05-21T09:55:24;28.90;99.00
22526;DHT22;11429;50.842;4.386;2023-05-21T09:57:52;29.30;98.50
22526;DHT22;11429;50.842;4.386;2023-05-21T10:03:04;30.10;97.90
22526;DHT22;11429;50.842;4.386;2023-05-21T10:05:32;29.60;98.30
22526;DHT22;11429;50.842;4.386;2023-05-21T10:08:00;30.30;97.80
22526;DHT22;11429;50.842;4.386;2023-05-21T10:10:27;30.70;97.40
22526;DHT22;11429;50.842;4.386;2023-05-21T10:13:13;29.60;98.10
22526;DHT22;11429;50.842;4.386;2023-05-21T10:15:49;29.50;98.50
22526;DHT22;11429;50.842;4.386;2023-05-21T10:18:18;28.80;99.20
22526;DHT22;11429;50.842;4.386;2023-05-21T10:20:46;29.70;98.40
22526;DHT22;11429;50.842;4.386;2023-05-21T10:23:12;29.30;98.60
22526;DHT22;11429;50.842;4.386;2023-05-21T10:25:39;29.10;99.40
22526;DHT22;11429;50.842;4.386;2023-05-21T10:28:05;30.10;98.60
22526;DHT22;11429;50.842;4.386;2023-05-21T10:30:31;30.20;98.30
22526;DHT22;11429;50.842;4.386;2023-05-21T10:32:58;30.60;97.90
22526;DHT22;11429;50.842;4.386;2023-05-21T10:35:26;31.40;96.80
22526;DHT22;11429;50.842;4.386;2023-05-21T10:37:52;31.30;97.10
22526;DHT22;11429;50.842;4.386;2023-05-21T10:40:19;31.70;96.20
22526;DHT22;11429;50.842;4.386;2023-05-21T10:48:15;30.40;97.20
22526;DHT22;11429;50.842;4.386;2023-05-21T10:51:04;29.70;97.80
22526;DHT22;11429;50.842;4.386;2023-05-21T10:56:38;28.70;99.20
22526;DHT22;11429;50.842;4.386;2023-05-21T11:02:11;28.50;99.40
22526;DHT22;11429;50.842;4.386;2023-05-21T11:04:38;27.90;99.90
22526;DHT22;11429;50.842;4.386;2023-05-21T11:07:06;27.30;99.90
22526;DHT22;11429;50.842;4.386;2023-05-21T11:09:32;26.20;99.90
22526;DHT22;11429;50.842;4.386;2023-05-21T11:11:59;25.30;99.90
22526;DHT22;11429;50.842;4.386;2023-05-21T11:16:56;25.50;99.90
22526;DHT22;11429;50.842;4.386;2023-05-21T11:22:26;25.60;99.90
22526;DHT22;11429;50.842;4.386;2023-05-21T11:24:53;24.90;99.90
22526;DHT22;11429;50.842;4.386;2023-05-21T11:30:17;24.40;99.90
22526;DHT22;11429;50.842;4.386;2023-05-21T11:38:10;24.80;99.90
22526;DHT22;11429;50.842;4.386;2023-05-21T11:40:36;24.90;99.90
22526;DHT22;11429;50.842;4.386;2023-05-21T11:43:02;24.90;99.90
22526;DHT22;11429;50.842;4.386;2023-05-21T11:45:31;24.30;99.90
22526;DHT22;11429;50.842;4.386;2023-05-21T11:47:57;24.50;99.90
22526;DHT22;11429;50.842;4.386;2023-05-21T11:50:23;25.60;99.90
22526;DHT22;11429;50.842;4.386;2023-05-21T11:52:50;26.70;99.90
22526;DHT22;11429;50.842;4.386;2023-05-21T11:55:21;26.70;99.90
22526;DHT22;11429;50.842;4.386;2023-05-21T11:57:47;26.30;99.90
22526;DHT22;11429;50.842;4.386;2023-05-21T12:00:17;25.90;99.90
22526;DHT22;11429;50.842;4.386;2023-05-21T12:02:48;26.00;99.90
22526;DHT22;11429;50.842;4.386;2023-05-21T12:05:14;25.80;99.90
22526;DHT22;11429;50.842;4.386;2023-05-21T12:07:40;24.50;99.90
22526;DHT22;11429;50.842;4.386;2023-05-21T12:10:07;24.10;99.90
22526;DHT22;11429;50.842;4.386;2023-05-21T12:12:33;23.80;99.90
22526;DHT22;11429;50.842;4.386;2023-05-21T12:15:00;24.50;99.90
22526;DHT22;11429;50.842;4.386;2023-05-21T12:17:26;24.80;99.90
22526;DHT22;11429;50.842;4.386;2023-05-21T12:19:55;25.00;99.90
22526;DHT22;11429;50.842;4.386;2023-05-21T12:22:24;25.20;99.90
22526;DHT22;11429;50.842;4.386;2023-05-21T12:24:52;25.50;99.90
22526;DHT22;11429;50.842;4.386;2023-05-21T12:27:18;25.60;99.90
22526;DHT22;11429;50.842;4.386;2023-05-21T12:29:48;25.70;99.90
22526;DHT22;11429;50.842;4.386;2023-05-21T12:32:15;25.90;99.90
22526;DHT22;11429;50.842;4.386;2023-05-21T12:34:49;25.90;99.90
22526;DHT22;11429;50.842;4.386;2023-05-21T12:37:34;26.10;99.90
22526;DHT22;11429;50.842;4.386;2023-05-21T12:40:02;25.70;99.90
22526;DHT22;11429;50.842;4.386;2023-05-21T12:42:37;25.30;99.90
22526;DHT22;11429;50.842;4.386;2023-05-21T12:45:08;24.80;99.90
22526;DHT22;11429;50.842;4.386;2023-05-21T12:47:34;24.30;99.90
22526;DHT22;11429;50.842;4.386;2023-05-21T12:50:02;24.50;99.90
22526;DHT22;11429;50.842;4.386;2023-05-21T12:52:28;24.80;99.90
22526;DHT22;11429;50.842;4.386;2023-05-21T12:54:58;25.40;99.90
22526;DHT22;11429;50.842;4.386;2023-05-21T12:57:34;25.90;99.90
22526;DHT22;11429;50.842;4.386;2023-05-21T13:00:00;25.60;99.90
22526;DHT22;11429;50.842;4.386;2023-05-21T13:02:40;25.50;99.90
22526;DHT22;11429;50.842;4.386;2023-05-21T13:05:08;25.10;99.90
22526;DHT22;11429;50.842;4.386;2023-05-21T13:07:38;25.20;99.90
22526;DHT22;11429;50.842;4.386;2023-05-21T13:10:05;25.00;99.90
22526;DHT22;11429;50.842;4.386;2023-05-21T13:12:32;24.80;99.90
22526;DHT22;11429;50.842;4.386;2023-05-21T13:14:59;24.60;99.90
22526;DHT22;11429;50.842;4.386;2023-05-21T13:17:26;24.80;99.90
22526;DHT22;11429;50.842;4.386;2023-05-21T13:22:32;25.30;99.90
22526;DHT22;11429;50.842;4.386;2023-05-21T13:24:58;25.50;99.90
22526;DHT22;11429;50.842;4.386;2023-05-21T13:27:23;25.20;99.90
22526;DHT22;11429;50.842;4.386;2023-05-21T13:29:49;24.80;99.90
22526;DHT22;11429;50.842;4.386;2023-05-21T13:32:15;24.70;99.90
22526;DHT22;11429;50.842;4.386;2023-05-21T13:34:40;24.50;99.90
22526;DHT22;11429;50.842;4.386;2023-05-21T13:37:06;24.80;99.90
22526;DHT22;11429;50.842;4.386;2023-05-21T13:39:32;25.00;99.90
22526;DHT22;11429;50.842;4.386;2023-05-21T13:41:57;25.00;99.90
22526;DHT22;11429;50.842;4.386;2023-05-21T13:44:23;25.00;99.90
22526;DHT22;11429;50.842;4.386;2023-05-21T13:46:49;25.00;99.90
22526;DHT22;11429;50.842;4.386;2023-05-21T13:49:15;24.90;99.90
22526;DHT22;11429;50.842;4.386;2023-05-21T13:51:41;24.70;99.90
22526;DHT22;11429;50.842;4.386;2023-05-21T13:54:06;24.80;99.90
22526;DHT22;11429;50.842;4.386;2023-05-21T13:56:32;25.00;99.90
22526;DHT22;11429;50.842;4.386;2023-05-21T13:58:58;24.70;99.90
22526;DHT22;11429;50.842;4.386;2023-05-21T14:01:24;24.30;99.90
22526;DHT22;11429;50.842;4.386;2023-05-21T14:03:51;24.10;99.90
22526;DHT22;11429;50.842;4.386;2023-05-21T14:06:17;24.20;99.90
22526;DHT22;11429;50.842;4.386;2023-05-21T14:08:42;24.50;99.90
22526;DHT22;11429;50.842;4.386;2023-05-21T14:11:08;24.70;99.90
22526;DHT22;11429;50.842;4.386;2023-05-21T14:13:34;24.20;99.90
22526;DHT22;11429;50.842;4.386;2023-05-21T14:16:00;24.10;99.90
22526;DHT22;11429;50.842;4.386;2023-05-21T14:18:25;24.40;99.90
22526;DHT22;11429;50.842;4.386;2023-05-21T14:20:52;24.80;99.90
22526;DHT22;11429;50.842;4.386;2023-05-21T14:23:18;24.80;99.90
22526;DHT22;11429;50.842;4.386;2023-05-21T14:25:43;24.50;99.90
22526;DHT22;11429;50.842;4.386;2023-05-21T14:28:09;24.60;99.90
22526;DHT22;11429;50.842;4.386;2023-05-21T14:30:35;25.00;99.90
22526;DHT22;11429;50.842;4.386;2023-05-21T14:33:00;25.50;99.90
22526;DHT22;11429;50.842;4.386;2023-05-21T14:35:26;25.20;99.90
22526;DHT22;11429;50.842;4.386;2023-05-21T14:37:52;25.30;99.90
22526;DHT22;11429;50.842;4.386;2023-05-21T14:40:19;25.70;99.90
22526;DHT22;11429;50.842;4.386;2023-05-21T14:42:44;25.50;99.90
22526;DHT22;11429;50.842;4.386;2023-05-21T14:45:10;25.40;99.90
22526;DHT22;11429;50.842;4.386;2023-05-21T14:47:36;25.30;99.90
22526;DHT22;11429;50.842;4.386;2023-05-21T14:50:02;24.90;99.90
22526;DHT22;11429;50.842;4.386;2023-05-21T14:52:27;24.90;99.90
22526;DHT22;11429;50.842;4.386;2023-05-21T14:54:53;25.30;99.90
22526;DHT22;11429;50.842;4.386;2023-05-21T14:57:19;25.20;99.90
22526;DHT22;11429;50.842;4.386;2023-05-21T14:59:45;25.50;99.90
22526;DHT22;11429;50.842;4.386;2023-05-21T15:02:11;25.70;99.90
22526;DHT22;11429;50.842;4.386;2023-05-21T15:04:36;25.10;99.90
22526;DHT22;11429;50.842;4.386;2023-05-21T15:07:02;25.00;99.90
22526;DHT22;11429;50.842;4.386;2023-05-21T15:09:28;25.20;99.90
22526;DHT22;11429;50.842;4.386;2023-05-21T15:11:54;24.60;99.90
22526;DHT22;11429;50.842;4.386;2023-05-21T15:14:19;24.80;99.90
22526;DHT22;11429;50.842;4.386;2023-05-21T15:16:45;24.90;99.90
22526;DHT22;11429;50.842;4.386;2023-05-21T15:19:11;24.50;99.90
22526;DHT22;11429;50.842;4.386;2023-05-21T15:21:37;24.50;99.90
22526;DHT22;11429;50.842;4.386;2023-05-21T15:24:03;24.40;99.90
22526;DHT22;11429;50.842;4.386;2023-05-21T15:26:28;24.40;99.90
22526;DHT22;11429;50.842;4.386;2023-05-21T15:28:57;24.30;99.90
22526;DHT22;11429;50.842;4.386;2023-05-21T15:31:23;24.60;99.90
22526;DHT22;11429;50.842;4.386;2023-05-21T15:33:49;24.30;99.90
22526;DHT22;11429;50.842;4.386;2023-05-21T15:36:14;24.10;99.90
22526;DHT22;11429;50.842;4.386;2023-05-21T15:38:40;24.40;99.90
22526;DHT22;11429;50.842;4.386;2023-05-21T15:41:09;24.40;99.90
22526;DHT22;11429;50.842;4.386;2023-05-21T15:43:35;24.00;99.90
22526;DHT22;11429;50.842;4.386;2023-05-21T15:46:00;24.10;99.90
22526;DHT22;11429;50.842;4.386;2023-05-21T15:48:26;24.20;99.90
22526;DHT22;11429;50.842;4.386;2023-05-21T15:50:52;24.40;99.90
22526;DHT22;11429;50.842;4.386;2023-05-21T15:53:18;24.80;99.90
22526;DHT22;11429;50.842;4.386;2023-05-21T15:55:44;24.90;99.90
22526;DHT22;11429;50.842;4.386;2023-05-21T15:58:10;24.80;99.90
22526;DHT22;11429;50.842;4.386;2023-05-21T16:00:36;24.80;99.90
22526;DHT22;11429;50.842;4.386;2023-05-21T16:03:02;24.70;99.90